Ausable Chasm, New York
Current Conditions -  °F | °C
As of 11:53 AM on Saturday 25 Oct 2014 (Local Time) from KPBG Reporting Station
Overcast Overcast  
Wind Chill: 45°   Ceiling: 5000
Heat Index: 49°   Visibility: 10mi
Dew Point: 44°   Wind: 10mph
Humidity: 83%   Direction: 150°SSE
Pressure: 29.68"   Gusts: NA
Location:  44.5125°N, 73.5235°W
Report Text: KPBG 251553Z AUTO 15009KT 10SM OVC050 09/07 A2968 RMK AO2 SLP053 T00940067
Loading
Personal Weather Stations






























Interactive Weather Map
Tropical Storm Tracking
New forecast layout! Learn more

10-Day Weather Forecast

Advertisements
Track Severe Weather on mobile